sensor_id;sensor_type;location;lat;lon;timestamp;temperature;humidity
28532;DHT22;15738;44.860;10.066;2023-04-19T00:01:38;12.50;99.90
28532;DHT22;15738;44.860;10.066;2023-04-19T00:04:25;12.40;99.90
28532;DHT22;15738;44.860;10.066;2023-04-19T00:07:11;12.40;99.90
28532;DHT22;15738;44.860;10.066;2023-04-19T00:09:57;12.50;99.90
28532;DHT22;15738;44.860;10.066;2023-04-19T00:12:43;12.50;99.90
28532;DHT22;15738;44.860;10.066;2023-04-19T00:15:29;12.40;99.90
28532;DHT22;15738;44.860;10.066;2023-04-19T00:18:15;12.40;99.90
28532;DHT22;15738;44.860;10.066;2023-04-19T00:21:01;12.50;99.90
28532;DHT22;15738;44.860;10.066;2023-04-19T00:23:47;12.50;99.90
28532;DHT22;15738;44.860;10.066;2023-04-19T00:26:32;12.50;99.90
28532;DHT22;15738;44.860;10.066;2023-04-19T00:29:18;12.50;99.90
28532;DHT22;15738;44.860;10.066;2023-04-19T00:32:04;12.40;99.90
28532;DHT22;15738;44.860;10.066;2023-04-19T00:34:50;12.40;99.90
28532;DHT22;15738;44.860;10.066;2023-04-19T00:37:36;12.40;99.90
28532;DHT22;15738;44.860;10.066;2023-04-19T00:40:21;12.30;99.90
28532;DHT22;15738;44.860;10.066;2023-04-19T00:43:07;12.30;99.90
28532;DHT22;15738;44.860;10.066;2023-04-19T00:45:53;12.30;99.90
28532;DHT22;15738;44.860;10.066;2023-04-19T00:48:38;12.30;99.90
28532;DHT22;15738;44.860;10.066;2023-04-19T00:51:24;12.40;99.90
28532;DHT22;15738;44.860;10.066;2023-04-19T00:54:11;12.40;99.90
28532;DHT22;15738;44.860;10.066;2023-04-19T00:56:59;12.40;99.90
28532;DHT22;15738;44.860;10.066;2023-04-19T00:59:46;12.40;99.90
28532;DHT22;15738;44.860;10.066;2023-04-19T01:02:31;12.40;99.90
28532;DHT22;15738;44.860;10.066;2023-04-19T01:05:17;12.40;99.90
28532;DHT22;15738;44.860;10.066;2023-04-19T01:08:02;12.40;99.90
28532;DHT22;15738;44.860;10.066;2023-04-19T01:10:48;12.40;99.90
28532;DHT22;15738;44.860;10.066;2023-04-19T01:13:34;12.30;99.90
28532;DHT22;15738;44.860;10.066;2023-04-19T01:16:19;12.30;99.90
28532;DHT22;15738;44.860;10.066;2023-04-19T01:19:08;12.30;99.90
28532;DHT22;15738;44.860;10.066;2023-04-19T01:21:54;12.20;99.90
28532;DHT22;15738;44.860;10.066;2023-04-19T01:24:40;12.10;99.90
28532;DHT22;15738;44.860;10.066;2023-04-19T01:27:26;12.20;99.90
28532;DHT22;15738;44.860;10.066;2023-04-19T01:30:12;12.10;99.90
28532;DHT22;15738;44.860;10.066;2023-04-19T01:32:58;12.10;99.90
28532;DHT22;15738;44.860;10.066;2023-04-19T01:35:43;12.10;99.90
28532;DHT22;15738;44.860;10.066;2023-04-19T01:38:29;12.10;99.90
28532;DHT22;15738;44.860;10.066;2023-04-19T01:41:15;12.10;99.90
28532;DHT22;15738;44.860;10.066;2023-04-19T01:44:01;12.10;99.90
28532;DHT22;15738;44.860;10.066;2023-04-19T01:46:47;12.10;99.90
28532;DHT22;15738;44.860;10.066;2023-04-19T01:49:33;12.00;99.90
28532;DHT22;15738;44.860;10.066;2023-04-19T01:52:19;12.00;99.90
28532;DHT22;15738;44.860;10.066;2023-04-19T01:55:05;12.00;99.90
28532;DHT22;15738;44.860;10.066;2023-04-19T01:57:53;12.00;99.90
28532;DHT22;15738;44.860;10.066;2023-04-19T02:00:39;12.00;99.90
28532;DHT22;15738;44.860;10.066;2023-04-19T02:03:25;12.00;99.90
28532;DHT22;15738;44.860;10.066;2023-04-19T02:06:11;11.90;99.90
28532;DHT22;15738;44.860;10.066;2023-04-19T02:08:58;11.90;99.90
28532;DHT22;15738;44.860;10.066;2023-04-19T02:11:44;11.80;99.90
28532;DHT22;15738;44.860;10.066;2023-04-19T02:14:30;11.80;99.90
28532;DHT22;15738;44.860;10.066;2023-04-19T02:17:16;11.90;99.90
28532;DHT22;15738;44.860;10.066;2023-04-19T02:20:01;11.80;99.90
28532;DHT22;15738;44.860;10.066;2023-04-19T02:22:49;11.80;99.90
28532;DHT22;15738;44.860;10.066;2023-04-19T02:25:34;11.80;99.90
28532;DHT22;15738;44.860;10.066;2023-04-19T02:28:20;11.70;99.90
28532;DHT22;15738;44.860;10.066;2023-04-19T02:31:06;11.70;99.90
28532;DHT22;15738;44.860;10.066;2023-04-19T02:33:52;11.80;99.90
28532;DHT22;15738;44.860;10.066;2023-04-19T02:36:38;11.70;99.90
28532;DHT22;15738;44.860;10.066;2023-04-19T02:39:24;11.80;99.90
28532;DHT22;15738;44.860;10.066;2023-04-19T02:42:10;11.80;99.90
28532;DHT22;15738;44.860;10.066;2023-04-19T02:44:56;11.80;99.90
28532;DHT22;15738;44.860;10.066;2023-04-19T02:47:41;11.80;99.90
28532;DHT22;15738;44.860;10.066;2023-04-19T02:50:28;11.80;99.90
28532;DHT22;15738;44.860;10.066;2023-04-19T02:53:13;11.80;99.90
28532;DHT22;15738;44.860;10.066;2023-04-19T02:56:00;11.80;99.90
28532;DHT22;15738;44.860;10.066;2023-04-19T02:58:46;11.80;99.90
28532;DHT22;15738;44.860;10.066;2023-04-19T03:01:32;11.80;99.90
28532;DHT22;15738;44.860;10.066;2023-04-19T03:04:21;11.70;99.90
28532;DHT22;15738;44.860;10.066;2023-04-19T03:07:07;11.70;99.90
28532;DHT22;15738;44.860;10.066;2023-04-19T03:09:54;11.70;99.90
28532;DHT22;15738;44.860;10.066;2023-04-19T03:12:40;11.70;99.90
28532;DHT22;15738;44.860;10.066;2023-04-19T03:15:26;11.70;99.90
28532;DHT22;15738;44.860;10.066;2023-04-19T03:18:12;11.70;99.90
28532;DHT22;15738;44.860;10.066;2023-04-19T03:20:59;11.60;99.90
28532;DHT22;15738;44.860;10.066;2023-04-19T03:23:50;11.60;99.90
28532;DHT22;15738;44.860;10.066;2023-04-19T03:26:37;11.60;99.90
28532;DHT22;15738;44.860;10.066;2023-04-19T03:29:22;11.60;99.90
28532;DHT22;15738;44.860;10.066;2023-04-19T03:32:20;11.50;99.90
28532;DHT22;15738;44.860;10.066;2023-04-19T03:35:07;11.50;99.90
28532;DHT22;15738;44.860;10.066;2023-04-19T03:37:53;11.50;99.90
28532;DHT22;15738;44.860;10.066;2023-04-19T03:40:39;11.40;99.90
28532;DHT22;15738;44.860;10.066;2023-04-19T03:43:27;11.40;99.90
28532;DHT22;15738;44.860;10.066;2023-04-19T03:46:13;11.40;99.90
28532;DHT22;15738;44.860;10.066;2023-04-19T03:48:59;11.30;99.90
28532;DHT22;15738;44.860;10.066;2023-04-19T03:51:45;11.30;99.90
28532;DHT22;15738;44.860;10.066;2023-04-19T03:54:35;11.20;99.90
28532;DHT22;15738;44.860;10.066;2023-04-19T03:57:26;11.20;99.90
28532;DHT22;15738;44.860;10.066;2023-04-19T04:00:12;11.20;99.90
28532;DHT22;15738;44.860;10.066;2023-04-19T04:02:58;11.10;99.90
28532;DHT22;15738;44.860;10.066;2023-04-19T04:05:45;11.00;99.90
28532;DHT22;15738;44.860;10.066;2023-04-19T04:08:31;11.00;99.90
28532;DHT22;15738;44.860;10.066;2023-04-19T04:11:17;10.90;99.90
28532;DHT22;15738;44.860;10.066;2023-04-19T04:14:05;10.90;99.90
28532;DHT22;15738;44.860;10.066;2023-04-19T04:16:55;10.80;99.90
28532;DHT22;15738;44.860;10.066;2023-04-19T04:19:40;10.70;99.90
28532;DHT22;15738;44.860;10.066;2023-04-19T04:22:26;10.70;99.90
28532;DHT22;15738;44.860;10.066;2023-04-19T04:25:13;10.60;99.90
28532;DHT22;15738;44.860;10.066;2023-04-19T04:28:00;10.60;99.90
28532;DHT22;15738;44.860;10.066;2023-04-19T04:30:46;10.60;99.90
28532;DHT22;15738;44.860;10.066;2023-04-19T04:33:31;10.60;99.90
28532;DHT22;15738;44.860;10.066;2023-04-19T04:36:18;10.60;99.90
28532;DHT22;15738;44.860;10.066;2023-04-19T04:39:05;10.50;99.90
28532;DHT22;15738;44.860;10.066;2023-04-19T04:41:54;10.60;99.90
28532;DHT22;15738;44.860;10.066;2023-04-19T04:44:42;10.60;99.90
28532;DHT22;15738;44.860;10.066;2023-04-19T04:47:30;10.70;99.90
28532;DHT22;15738;44.860;10.066;2023-04-19T04:50:19;10.70;99.90
28532;DHT22;15738;44.860;10.066;2023-04-19T04:53:06;10.70;99.90
28532;DHT22;15738;44.860;10.066;2023-04-19T04:55:53;10.70;99.90
28532;DHT22;15738;44.860;10.066;2023-04-19T04:58:39;10.70;99.90
28532;DHT22;15738;44.860;10.066;2023-04-19T05:01:27;10.80;99.90
28532;DHT22;15738;44.860;10.066;2023-04-19T05:04:15;11.10;99.90
28532;DHT22;15738;44.860;10.066;2023-04-19T05:07:01;11.30;99.90
28532;DHT22;15738;44.860;10.066;2023-04-19T05:09:47;11.70;99.90
28532;DHT22;15738;44.860;10.066;2023-04-19T05:12:38;12.20;99.90
28532;DHT22;15738;44.860;10.066;2023-04-19T05:15:23;12.60;99.90
28532;DHT22;15738;44.860;10.066;2023-04-19T05:18:12;12.80;99.90
28532;DHT22;15738;44.860;10.066;2023-04-19T05:20:59;13.00;99.90
28532;DHT22;15738;44.860;10.066;2023-04-19T05:23:48;13.50;99.90
28532;DHT22;15738;44.860;10.066;2023-04-19T05:26:38;13.90;99.90
28532;DHT22;15738;44.860;10.066;2023-04-19T05:29:25;14.10;99.90
28532;DHT22;15738;44.860;10.066;2023-04-19T05:32:12;14.00;99.90
28532;DHT22;15738;44.860;10.066;2023-04-19T05:35:03;14.00;99.90
28532;DHT22;15738;44.860;10.066;2023-04-19T05:37:49;14.10;99.90
28532;DHT22;15738;44.860;10.066;2023-04-19T05:40:35;14.40;99.90
28532;DHT22;15738;44.860;10.066;2023-04-19T05:43:21;14.70;99.90
28532;DHT22;15738;44.860;10.066;2023-04-19T05:46:07;15.10;99.90
28532;DHT22;15738;44.860;10.066;2023-04-19T05:48:52;15.50;99.90
28532;DHT22;15738;44.860;10.066;2023-04-19T05:51:44;15.50;99.90
28532;DHT22;15738;44.860;10.066;2023-04-19T05:54:44;15.30;99.90
28532;DHT22;15738;44.860;10.066;2023-04-19T05:57:30;15.00;99.90
28532;DHT22;15738;44.860;10.066;2023-04-19T06:00:16;14.70;99.90
28532;DHT22;15738;44.860;10.066;2023-04-19T06:03:10;14.50;99.90
28532;DHT22;15738;44.860;10.066;2023-04-19T06:05:56;14.30;99.90
28532;DHT22;15738;44.860;10.066;2023-04-19T06:08:42;14.20;99.90
28532;DHT22;15738;44.860;10.066;2023-04-19T06:11:29;14.30;99.90
28532;DHT22;15738;44.860;10.066;2023-04-19T06:14:27;14.30;99.90
28532;DHT22;15738;44.860;10.066;2023-04-19T06:17:16;14.50;99.90
28532;DHT22;15738;44.860;10.066;2023-04-19T06:20:08;14.70;99.90
28532;DHT22;15738;44.860;10.066;2023-04-19T06:22:54;15.00;99.90
28532;DHT22;15738;44.860;10.066;2023-04-19T06:25:40;15.20;99.90
28532;DHT22;15738;44.860;10.066;2023-04-19T06:28:25;15.50;99.90
28532;DHT22;15738;44.860;10.066;2023-04-19T06:41:20;16.50;99.90
28532;DHT22;15738;44.860;10.066;2023-04-19T06:44:13;17.00;99.90
28532;DHT22;15738;44.860;10.066;2023-04-19T06:46:59;17.20;99.90
28532;DHT22;15738;44.860;10.066;2023-04-19T06:49:45;17.40;99.90
28532;DHT22;15738;44.860;10.066;2023-04-19T07:07:33;18.30;99.90
28532;DHT22;15738;44.860;10.066;2023-04-19T07:10:22;18.50;99.90
28532;DHT22;15738;44.860;10.066;2023-04-19T07:13:11;18.70;99.90
28532;DHT22;15738;44.860;10.066;2023-04-19T07:15:57;18.80;99.90
28532;DHT22;15738;44.860;10.066;2023-04-19T07:18:43;19.00;99.90
28532;DHT22;15738;44.860;10.066;2023-04-19T07:56:47;20.40;99.90
28532;DHT22;15738;44.860;10.066;2023-04-19T08:24:43;20.60;99.90
28532;DHT22;15738;44.860;10.066;2023-04-19T08:27:29;20.80;99.90
28532;DHT22;15738;44.860;10.066;2023-04-19T08:30:15;21.10;99.90
28532;DHT22;15738;44.860;10.066;2023-04-19T08:33:00;21.10;99.90
28532;DHT22;15738;44.860;10.066;2023-04-19T08:35:47;21.00;99.90
28532;DHT22;15738;44.860;10.066;2023-04-19T08:38:33;20.60;99.90
28532;DHT22;15738;44.860;10.066;2023-04-19T08:41:19;20.70;99.90
28532;DHT22;15738;44.860;10.066;2023-04-19T08:44:05;20.80;99.90
28532;DHT22;15738;44.860;10.066;2023-04-19T08:46:53;20.80;99.90
28532;DHT22;15738;44.860;10.066;2023-04-19T08:49:38;21.10;99.90
28532;DHT22;15738;44.860;10.066;2023-04-19T08:52:27;21.00;99.90
28532;DHT22;15738;44.860;10.066;2023-04-19T08:55:13;21.30;99.90
28532;DHT22;15738;44.860;10.066;2023-04-19T08:57:59;21.50;99.90
28532;DHT22;15738;44.860;10.066;2023-04-19T09:00:50;21.30;99.90
28532;DHT22;15738;44.860;10.066;2023-04-19T09:03:40;21.30;99.90
28532;DHT22;15738;44.860;10.066;2023-04-19T09:06:47;21.30;99.90
28532;DHT22;15738;44.860;10.066;2023-04-19T09:09:33;21.20;99.90
28532;DHT22;15738;44.860;10.066;2023-04-19T09:12:36;21.20;99.90
28532;DHT22;15738;44.860;10.066;2023-04-19T09:15:33;21.00;99.90
28532;DHT22;15738;44.860;10.066;2023-04-19T09:18:19;20.90;99.90
28532;DHT22;15738;44.860;10.066;2023-04-19T09:21:05;21.00;99.90
28532;DHT22;15738;44.860;10.066;2023-04-19T09:23:51;20.80;99.90
28532;DHT22;15738;44.860;10.066;2023-04-19T09:26:37;20.80;99.90
28532;DHT22;15738;44.860;10.066;2023-04-19T09:29:22;20.90;99.90
28532;DHT22;15738;44.860;10.066;2023-04-19T09:32:08;20.80;99.90
28532;DHT22;15738;44.860;10.066;2023-04-19T09:34:54;20.60;99.90
28532;DHT22;15738;44.860;10.066;2023-04-19T09:37:40;20.60;99.90
28532;DHT22;15738;44.860;10.066;2023-04-19T09:40:29;20.70;99.90
28532;DHT22;15738;44.860;10.066;2023-04-19T10:12:59;21.00;99.90
28532;DHT22;15738;44.860;10.066;2023-04-19T10:15:55;21.10;99.90
28532;DHT22;15738;44.860;10.066;2023-04-19T10:18:56;21.00;99.90
28532;DHT22;15738;44.860;10.066;2023-04-19T10:36:57;21.10;99.90
28532;DHT22;15738;44.860;10.066;2023-04-19T10:39:43;21.20;99.90
28532;DHT22;15738;44.860;10.066;2023-04-19T10:45:33;21.30;99.90
28532;DHT22;15738;44.860;10.066;2023-04-19T10:51:22;21.50;99.90
28532;DHT22;15738;44.860;10.066;2023-04-19T10:54:09;21.30;99.90
28532;DHT22;15738;44.860;10.066;2023-04-19T10:56:56;20.80;99.90
28532;DHT22;15738;44.860;10.066;2023-04-19T10:59:43;20.70;99.90
28532;DHT22;15738;44.860;10.066;2023-04-19T11:02:28;21.00;99.90
28532;DHT22;15738;44.860;10.066;2023-04-19T11:05:17;21.00;99.90
28532;DHT22;15738;44.860;10.066;2023-04-19T11:08:04;21.10;99.90
28532;DHT22;15738;44.860;10.066;2023-04-19T11:10:50;21.20;99.90
28532;DHT22;15738;44.860;10.066;2023-04-19T11:13:37;21.20;99.90
28532;DHT22;15738;44.860;10.066;2023-04-19T11:16:23;21.10;99.90
28532;DHT22;15738;44.860;10.066;2023-04-19T11:19:26;21.10;99.90
28532;DHT22;15738;44.860;10.066;2023-04-19T11:22:12;21.10;99.90
28532;DHT22;15738;44.860;10.066;2023-04-19T11:27:52;21.00;99.90
28532;DHT22;15738;44.860;10.066;2023-04-19T11:30:38;21.20;99.90
28532;DHT22;15738;44.860;10.066;2023-04-19T11:33:24;21.20;99.90
28532;DHT22;15738;44.860;10.066;2023-04-19T11:36:10;21.10;99.90
28532;DHT22;15738;44.860;10.066;2023-04-19T11:38:57;21.20;99.90
28532;DHT22;15738;44.860;10.066;2023-04-19T11:41:42;21.30;99.90
28532;DHT22;15738;44.860;10.066;2023-04-19T11:44:28;21.20;99.90
28532;DHT22;15738;44.860;10.066;2023-04-19T11:47:14;21.10;99.90
28532;DHT22;15738;44.860;10.066;2023-04-19T11:55:55;21.30;99.90
28532;DHT22;15738;44.860;10.066;2023-04-19T11:58:45;21.40;99.90
28532;DHT22;15738;44.860;10.066;2023-04-19T12:01:34;21.30;99.90
28532;DHT22;15738;44.860;10.066;2023-04-19T12:04:20;21.50;99.90
28532;DHT22;15738;44.860;10.066;2023-04-19T12:07:09;21.70;99.90
28532;DHT22;15738;44.860;10.066;2023-04-19T12:09:54;21.60;99.90
28532;DHT22;15738;44.860;10.066;2023-04-19T12:12:40;21.60;99.90
28532;DHT22;15738;44.860;10.066;2023-04-19T12:15:42;21.30;99.90
28532;DHT22;15738;44.860;10.066;2023-04-19T12:18:40;21.20;99.90
28532;DHT22;15738;44.860;10.066;2023-04-19T12:21:28;21.40;99.90
28532;DHT22;15738;44.860;10.066;2023-04-19T12:24:14;21.60;99.90
28532;DHT22;15738;44.860;10.066;2023-04-19T12:27:00;21.50;99.90
28532;DHT22;15738;44.860;10.066;2023-04-19T12:29:47;21.40;99.90
28532;DHT22;15738;44.860;10.066;2023-04-19T12:32:35;21.40;99.90
28532;DHT22;15738;44.860;10.066;2023-04-19T12:35:24;21.60;99.90
28532;DHT22;15738;44.860;10.066;2023-04-19T12:38:10;21.70;99.90
28532;DHT22;15738;44.860;10.066;2023-04-19T12:40:55;21.50;99.90
28532;DHT22;15738;44.860;10.066;2023-04-19T12:43:41;21.60;99.90
28532;DHT22;15738;44.860;10.066;2023-04-19T12:46:27;21.80;99.90
28532;DHT22;15738;44.860;10.066;2023-04-19T12:49:13;21.90;99.70
28532;DHT22;15738;44.860;10.066;2023-04-19T12:51:58;21.90;99.90
28532;DHT22;15738;44.860;10.066;2023-04-19T12:54:47;21.90;99.90
28532;DHT22;15738;44.860;10.066;2023-04-19T12:57:32;21.90;99.90
28532;DHT22;15738;44.860;10.066;2023-04-19T13:00:18;22.00;99.90
28532;DHT22;15738;44.860;10.066;2023-04-19T13:03:04;22.00;99.90
28532;DHT22;15738;44.860;10.066;2023-04-19T13:05:50;21.80;99.90
28532;DHT22;15738;44.860;10.066;2023-04-19T13:08:36;21.70;99.90
28532;DHT22;15738;44.860;10.066;2023-04-19T13:11:31;21.80;99.90
28532;DHT22;15738;44.860;10.066;2023-04-19T13:14:17;21.60;99.90
28532;DHT22;15738;44.860;10.066;2023-04-19T13:17:03;21.60;99.90
28532;DHT22;15738;44.860;10.066;2023-04-19T13:19:48;21.60;99.90
28532;DHT22;15738;44.860;10.066;2023-04-19T13:22:34;21.60;99.90
28532;DHT22;15738;44.860;10.066;2023-04-19T13:25:20;21.70;99.90
28532;DHT22;15738;44.860;10.066;2023-04-19T13:28:05;21.90;99.90
28532;DHT22;15738;44.860;10.066;2023-04-19T13:30:51;21.80;99.90
28532;DHT22;15738;44.860;10.066;2023-04-19T13:33:37;21.90;99.90
28532;DHT22;15738;44.860;10.066;2023-04-19T13:36:23;21.90;99.30
28532;DHT22;15738;44.860;10.066;2023-04-19T13:39:09;22.00;99.60
28532;DHT22;15738;44.860;10.066;2023-04-19T13:41:55;22.10;99.90
28532;DHT22;15738;44.860;10.066;2023-04-19T13:44:40;22.00;99.30
28532;DHT22;15738;44.860;10.066;2023-04-19T13:47:26;22.20;99.50
28532;DHT22;15738;44.860;10.066;2023-04-19T13:50:12;22.20;99.30
28532;DHT22;15738;44.860;10.066;2023-04-19T13:52:59;22.10;98.90
28532;DHT22;15738;44.860;10.066;2023-04-19T13:55:45;21.90;99.90
28532;DHT22;15738;44.860;10.066;2023-04-19T13:58:30;22.10;99.70
28532;DHT22;15738;44.860;10.066;2023-04-19T14:01:16;22.00;99.30
28532;DHT22;15738;44.860;10.066;2023-04-19T14:04:01;21.90;99.50
28532;DHT22;15738;44.860;10.066;2023-04-19T14:06:48;22.00;99.60
28532;DHT22;15738;44.860;10.066;2023-04-19T14:09:33;22.10;99.70
28532;DHT22;15738;44.860;10.066;2023-04-19T14:12:19;22.00;99.60
28532;DHT22;15738;44.860;10.066;2023-04-19T14:15:05;22.00;99.60
28532;DHT22;15738;44.860;10.066;2023-04-19T14:17:51;21.90;99.30
28532;DHT22;15738;44.860;10.066;2023-04-19T14:20:37;21.90;99.30
28532;DHT22;15738;44.860;10.066;2023-04-19T14:23:23;21.90;99.20
28532;DHT22;15738;44.860;10.066;2023-04-19T14:26:08;21.70;99.70
28532;DHT22;15738;44.860;10.066;2023-04-19T14:28:54;21.80;99.70
28532;DHT22;15738;44.860;10.066;2023-04-19T14:31:40;21.80;99.60
28532;DHT22;15738;44.860;10.066;2023-04-19T14:34:26;21.90;99.90
28532;DHT22;15738;44.860;10.066;2023-04-19T14:37:11;22.00;99.80
28532;DHT22;15738;44.860;10.066;2023-04-19T14:40:00;22.10;99.90
28532;DHT22;15738;44.860;10.066;2023-04-19T14:42:46;22.20;99.90
28532;DHT22;15738;44.860;10.066;2023-04-19T14:45:32;22.30;99.90
28532;DHT22;15738;44.860;10.066;2023-04-19T14:48:18;22.30;99.90
28532;DHT22;15738;44.860;10.066;2023-04-19T14:51:06;22.40;99.90
28532;DHT22;15738;44.860;10.066;2023-04-19T14:53:52;22.40;99.90
28532;DHT22;15738;44.860;10.066;2023-04-19T14:56:38;22.40;99.60
28532;DHT22;15738;44.860;10.066;2023-04-19T14:59:23;22.20;99.60
28532;DHT22;15738;44.860;10.066;2023-04-19T15:02:09;22.10;99.90
28532;DHT22;15738;44.860;10.066;2023-04-19T15:04:55;21.90;99.90
28532;DHT22;15738;44.860;10.066;2023-04-19T15:07:41;21.80;99.90
28532;DHT22;15738;44.860;10.066;2023-04-19T15:10:26;21.70;99.90
28532;DHT22;15738;44.860;10.066;2023-04-19T15:13:12;21.60;99.90
28532;DHT22;15738;44.860;10.066;2023-04-19T15:15:58;21.60;99.90
28532;DHT22;15738;44.860;10.066;2023-04-19T15:18:47;21.50;99.90
28532;DHT22;15738;44.860;10.066;2023-04-19T15:21:33;21.40;99.90
28532;DHT22;15738;44.860;10.066;2023-04-19T15:24:19;21.30;99.90
28532;DHT22;15738;44.860;10.066;2023-04-19T15:27:04;21.20;99.90
28532;DHT22;15738;44.860;10.066;2023-04-19T15:29:50;21.20;99.90
28532;DHT22;15738;44.860;10.066;2023-04-19T15:32:35;21.10;99.90
28532;DHT22;15738;44.860;10.066;2023-04-19T15:35:23;21.00;99.90
28532;DHT22;15738;44.860;10.066;2023-04-19T15:38:09;21.10;99.90
28532;DHT22;15738;44.860;10.066;2023-04-19T15:40:55;21.10;99.90
28532;DHT22;15738;44.860;10.066;2023-04-19T15:43:41;21.00;99.90
28532;DHT22;15738;44.860;10.066;2023-04-19T15:46:26;21.00;99.90
28532;DHT22;15738;44.860;10.066;2023-04-19T15:49:12;21.00;99.90
28532;DHT22;15738;44.860;10.066;2023-04-19T15:51:58;20.90;99.90
28532;DHT22;15738;44.860;10.066;2023-04-19T15:54:43;20.80;99.90
28532;DHT22;15738;44.860;10.066;2023-04-19T15:57:29;20.80;99.90
28532;DHT22;15738;44.860;10.066;2023-04-19T16:00:15;20.80;99.90
28532;DHT22;15738;44.860;10.066;2023-04-19T16:03:01;20.70;99.90
28532;DHT22;15738;44.860;10.066;2023-04-19T16:05:47;20.70;99.90
28532;DHT22;15738;44.860;10.066;2023-04-19T16:08:36;20.60;99.90
28532;DHT22;15738;44.860;10.066;2023-04-19T16:11:21;20.60;99.90
28532;DHT22;15738;44.860;10.066;2023-04-19T16:14:07;20.50;99.90
28532;DHT22;15738;44.860;10.066;2023-04-19T16:16:53;20.40;99.90
28532;DHT22;15738;44.860;10.066;2023-04-19T16:19:38;20.40;99.90
28532;DHT22;15738;44.860;10.066;2023-04-19T16:22:24;20.40;99.90
28532;DHT22;15738;44.860;10.066;2023-04-19T16:25:10;20.30;99.90
28532;DHT22;15738;44.860;10.066;2023-04-19T16:27:57;20.30;99.90
28532;DHT22;15738;44.860;10.066;2023-04-19T16:30:44;20.30;99.90
28532;DHT22;15738;44.860;10.066;2023-04-19T16:33:31;20.30;99.90
28532;DHT22;15738;44.860;10.066;2023-04-19T16:36:16;19.80;99.90
28532;DHT22;15738;44.860;10.066;2023-04-19T16:39:02;20.30;99.90
28532;DHT22;15738;44.860;10.066;2023-04-19T16:41:47;20.30;99.90
28532;DHT22;15738;44.860;10.066;2023-04-19T16:44:33;20.20;99.90
28532;DHT22;15738;44.860;10.066;2023-04-19T16:47:19;20.10;99.90
28532;DHT22;15738;44.860;10.066;2023-04-19T16:50:06;20.10;99.90
28532;DHT22;15738;44.860;10.066;2023-04-19T16:52:52;20.10;99.90
28532;DHT22;15738;44.860;10.066;2023-04-19T16:55:38;20.00;99.90
28532;DHT22;15738;44.860;10.066;2023-04-19T16:58:23;20.00;99.90
28532;DHT22;15738;44.860;10.066;2023-04-19T17:01:09;20.00;99.90
28532;DHT22;15738;44.860;10.066;2023-04-19T17:03:55;19.90;99.90
28532;DHT22;15738;44.860;10.066;2023-04-19T17:06:41;19.90;99.90
28532;DHT22;15738;44.860;10.066;2023-04-19T17:09:26;19.90;99.90
28532;DHT22;15738;44.860;10.066;2023-04-19T17:12:15;19.80;99.90
28532;DHT22;15738;44.860;10.066;2023-04-19T17:15:01;19.80;99.90
28532;DHT22;15738;44.860;10.066;2023-04-19T17:17:47;19.80;99.90
28532;DHT22;15738;44.860;10.066;2023-04-19T17:20:33;19.70;99.90
28532;DHT22;15738;44.860;10.066;2023-04-19T17:23:19;19.70;99.90
28532;DHT22;15738;44.860;10.066;2023-04-19T17:26:05;19.70;99.90
28532;DHT22;15738;44.860;10.066;2023-04-19T17:28:51;19.60;99.90
28532;DHT22;15738;44.860;10.066;2023-04-19T17:31:37;19.50;99.90
28532;DHT22;15738;44.860;10.066;2023-04-19T17:34:25;19.50;99.90
28532;DHT22;15738;44.860;10.066;2023-04-19T17:37:10;19.40;99.90
28532;DHT22;15738;44.860;10.066;2023-04-19T17:39:56;19.30;99.90
28532;DHT22;15738;44.860;10.066;2023-04-19T17:42:42;19.10;99.90
28532;DHT22;15738;44.860;10.066;2023-04-19T17:45:28;19.10;99.90
28532;DHT22;15738;44.860;10.066;2023-04-19T17:48:14;18.90;99.90
28532;DHT22;15738;44.860;10.066;2023-04-19T17:50:59;18.90;99.90
28532;DHT22;15738;44.860;10.066;2023-04-19T17:53:45;18.90;99.90
28532;DHT22;15738;44.860;10.066;2023-04-19T17:56:31;18.80;99.90
28532;DHT22;15738;44.860;10.066;2023-04-19T17:59:17;18.80;99.90
28532;DHT22;15738;44.860;10.066;2023-04-19T18:02:03;18.70;99.90
28532;DHT22;15738;44.860;10.066;2023-04-19T18:04:49;18.70;99.90
28532;DHT22;15738;44.860;10.066;2023-04-19T18:07:35;18.70;99.90
28532;DHT22;15738;44.860;10.066;2023-04-19T18:10:20;18.60;99.90
28532;DHT22;15738;44.860;10.066;2023-04-19T18:13:06;18.50;99.90
28532;DHT22;15738;44.860;10.066;2023-04-19T18:15:52;18.50;99.90
28532;DHT22;15738;44.860;10.066;2023-04-19T18:18:37;18.30;99.90
28532;DHT22;15738;44.860;10.066;2023-04-19T18:21:23;18.20;99.90
28532;DHT22;15738;44.860;10.066;2023-04-19T18:24:09;18.10;99.90
28532;DHT22;15738;44.860;10.066;2023-04-19T18:26:54;18.00;99.90
28532;DHT22;15738;44.860;10.066;2023-04-19T18:29:40;18.00;99.90
28532;DHT22;15738;44.860;10.066;2023-04-19T18:32:26;17.90;99.90
28532;DHT22;15738;44.860;10.066;2023-04-19T18:35:13;17.80;99.90
28532;DHT22;15738;44.860;10.066;2023-04-19T18:37:59;17.80;99.90
28532;DHT22;15738;44.860;10.066;2023-04-19T18:40:45;17.80;99.90
28532;DHT22;15738;44.860;10.066;2023-04-19T18:43:31;17.70;99.90
28532;DHT22;15738;44.860;10.066;2023-04-19T18:46:17;17.60;99.90
28532;DHT22;15738;44.860;10.066;2023-04-19T18:49:03;17.60;99.90
28532;DHT22;15738;44.860;10.066;2023-04-19T18:51:49;17.60;99.90
28532;DHT22;15738;44.860;10.066;2023-04-19T18:54:36;17.50;99.90
28532;DHT22;15738;44.860;10.066;2023-04-19T18:57:21;17.50;99.90
28532;DHT22;15738;44.860;10.066;2023-04-19T19:00:12;17.40;99.90
28532;DHT22;15738;44.860;10.066;2023-04-19T19:02:58;17.40;99.90
28532;DHT22;15738;44.860;10.066;2023-04-19T19:05:49;17.40;99.90
28532;DHT22;15738;44.860;10.066;2023-04-19T19:08:35;17.30;99.90
28532;DHT22;15738;44.860;10.066;2023-04-19T19:11:24;17.30;99.90
28532;DHT22;15738;44.860;10.066;2023-04-19T19:14:12;17.30;99.90
28532;DHT22;15738;44.860;10.066;2023-04-19T19:16:58;17.30;99.90
28532;DHT22;15738;44.860;10.066;2023-04-19T19:19:44;17.30;99.90
28532;DHT22;15738;44.860;10.066;2023-04-19T19:22:30;17.20;99.90
28532;DHT22;15738;44.860;10.066;2023-04-19T19:25:16;17.10;99.90
28532;DHT22;15738;44.860;10.066;2023-04-19T19:28:02;17.10;99.90
28532;DHT22;15738;44.860;10.066;2023-04-19T19:30:54;17.10;99.90
28532;DHT22;15738;44.860;10.066;2023-04-19T19:33:40;16.90;99.90
28532;DHT22;15738;44.860;10.066;2023-04-19T19:36:26;16.80;99.90
28532;DHT22;15738;44.860;10.066;2023-04-19T19:39:12;16.60;99.90
28532;DHT22;15738;44.860;10.066;2023-04-19T19:41:57;16.50;99.90